Time;durP1;ratioP1;P1;durP2;ratioP2;P2;SDS_P1;SDS_P2;PMS_P1;PMS_P2;Temp;Humidity;BMP_temperature;BMP_pressure;BME280_temperature;BME280_humidity;BME280_pressure;Samples;Min_cycle;Max_cycle;Signal;HPM_P1;HPM_P2
2022/01/03 00:01:46;;;;;;;11.65;4.65;;;;;;;7.62;100.00;100175.66;4978211;28;20308;-78
2022/01/03 00:04:15;;;;;;;10.52;4.25;;;;;;;7.72;100.00;100170.88;4991595;28;20539;-79
2022/01/03 00:06:40;;;;;;;10.18;3.88;;;;;;;7.63;100.00;100173.84;4991691;28;20644;-79
2022/01/03 00:09:07;;;;;;;13.82;4.78;;;;;;;7.60;100.00;100173.97;4977469;28;20177;-79
2022/01/03 00:11:35;;;;;;;10.80;4.63;;;;;;;7.59;100.00;100167.78;4975352;28;20575;-79
2022/01/03 00:14:01;;;;;;;14.80;4.88;;;;;;;7.59;100.00;100166.91;4977002;28;20170;-79
2022/01/03 00:16:27;;;;;;;17.73;5.55;;;;;;;7.64;100.00;100164.94;4991173;28;20200;-79
2022/01/03 00:18:53;;;;;;;10.75;4.75;;;;;;;7.59;100.00;100164.25;4992819;28;20796;-79
2022/01/03 00:21:20;;;;;;;9.75;4.45;;;;;;;7.63;100.00;100176.50;4977940;28;20210;-80
2022/01/03 00:23:52;;;;;;;11.93;5.50;;;;;;;7.67;100.00;100163.94;4978659;28;20194;-80
2022/01/03 00:26:24;;;;;;;10.20;4.80;;;;;;;7.58;100.00;100175.81;4979091;28;20170;-78
2022/01/03 00:29:19;;;;;;;13.77;5.90;;;;;;;7.59;100.00;100166.91;4978209;28;20237;-79
2022/01/03 00:31:45;;;;;;;17.92;5.65;;;;;;;7.61;100.00;100165.06;4976763;28;20194;-79
2022/01/03 00:34:12;;;;;;;18.17;5.60;;;;;;;7.58;100.00;100167.81;4960848;28;20188;-79
2022/01/03 00:36:38;;;;;;;14.85;6.05;;;;;;;7.54;100.00;100150.19;4975961;28;20213;-79
2022/01/03 00:39:07;;;;;;;12.60;5.68;;;;;;;7.57;100.00;100163.44;4976091;28;20244;-79
2022/01/03 00:41:37;;;;;;;12.05;5.90;;;;;;;7.48;100.00;100159.31;4977730;28;20210;-79
2022/01/03 00:44:03;;;;;;;12.43;5.93;;;;;;;7.49;100.00;100162.84;4977857;28;20225;-79
2022/01/03 00:46:31;;;;;;;16.85;5.78;;;;;;;7.51;100.00;100158.31;4993903;28;20170;-80
2022/01/03 00:48:59;;;;;;;14.73;6.15;;;;;;;7.47;100.00;100154.88;4976735;28;20209;-81
2022/01/03 00:51:25;;;;;;;14.13;5.57;;;;;;;7.52;100.00;100152.03;4961941;28;20201;-78
2022/01/03 00:53:51;;;;;;;15.95;6.55;;;;;;;7.51;100.00;100159.19;4980182;28;20178;-78
2022/01/03 00:56:35;;;;;;;13.65;6.20;;;;;;;7.52;100.00;100155.59;4993489;28;20268;-81
2022/01/03 00:59:07;;;;;;;13.68;5.47;;;;;;;7.52;100.00;100144.06;4976952;28;20177;-80
2022/01/03 01:01:51;;;;;;;18.20;6.28;;;;;;;7.49;100.00;100139.69;4976570;28;20225;-80
2022/01/03 01:04:19;;;;;;;15.00;6.40;;;;;;;7.53;100.00;100145.81;4992734;28;20384;-80
2022/01/03 01:06:53;;;;;;;18.35;6.63;;;;;;;7.54;100.00;100137.75;4975807;28;20550;-80
2022/01/03 01:09:20;;;;;;;12.85;5.85;;;;;;;7.51;100.00;100127.19;4977800;28;20170;-79
2022/01/03 01:11:45;;;;;;;12.85;5.95;;;;;;;7.58;100.00;100127.84;4976044;28;20190;-80
2022/01/03 01:14:14;;;;;;;17.63;6.60;;;;;;;7.54;100.00;100126.22;4992244;28;20702;-80
2022/01/03 01:16:41;;;;;;;17.75;6.43;;;;;;;7.56;100.00;100135.00;4991610;28;20261;-80
2022/01/03 01:19:08;;;;;;;11.20;5.43;;;;;;;7.59;100.00;100137.59;4975953;28;20664;-80
2022/01/03 01:21:34;;;;;;;16.15;5.90;;;;;;;7.53;100.00;100125.34;4975898;28;20300;-80
2022/01/03 01:24:00;;;;;;;15.07;6.07;;;;;;;7.51;100.00;100129.84;4975252;28;20174;-80
2022/01/03 01:29:11;;;;;;;18.95;7.30;;;;;;;7.45;100.00;100122.09;4990542;28;20208;-79
2022/01/03 01:31:44;;;;;;;13.57;7.07;;;;;;;7.45;100.00;100127.41;4971939;28;20950;-79
2022/01/03 01:34:14;;;;;;;19.98;7.93;;;;;;;7.48;100.00;100129.09;4972266;28;20261;-78
2022/01/03 01:36:45;;;;;;;21.20;7.65;;;;;;;7.40;100.00;100132.91;4971561;28;20276;-78
2022/01/03 01:39:11;;;;;;;17.63;8.23;;;;;;;7.36;100.00;100125.94;4972130;28;20185;-80
2022/01/03 01:41:44;;;;;;;20.95;8.43;;;;;;;7.41;100.00;100136.44;4971871;28;20295;-80
2022/01/03 01:44:10;;;;;;;18.75;7.65;;;;;;;7.44;100.00;100139.00;4972000;28;20690;-78
2022/01/03 01:46:43;;;;;;;14.07;8.27;;;;;;;7.40;100.00;100132.06;4987715;28;20372;-80
2022/01/03 01:49:15;;;;;;;13.63;7.70;;;;;;;7.39;100.00;100133.84;4971717;28;20679;-78
2022/01/03 01:51:45;;;;;;;20.20;8.63;;;;;;;7.36;100.00;100139.28;4971953;28;20194;-78
2022/01/03 01:54:15;;;;;;;20.73;8.65;;;;;;;7.34;100.00;100137.59;4971967;28;20189;-78
2022/01/03 01:57:08;;;;;;;19.60;8.60;;;;;;;7.37;100.00;100149.03;4955292;28;20171;-79
2022/01/03 02:00:10;;;;;;;18.23;8.60;;;;;;;7.38;100.00;100150.75;4971689;28;20189;-80
2022/01/03 02:03:02;;;;;;;15.85;9.02;;;;;;;7.34;100.00;100162.44;4975464;28;20732;-78
2022/01/03 02:05:37;;;;;;;20.10;9.80;;;;;;;7.32;100.00;100158.09;4977102;28;20174;-77
2022/01/03 02:08:25;;;;;;;19.08;9.02;;;;;;;7.34;100.00;100154.44;4978392;28;20263;-78
2022/01/03 02:11:18;;;;;;;17.55;8.25;;;;;;;7.32;100.00;100160.75;4997467;28;20201;-78
2022/01/03 02:13:45;;;;;;;17.52;8.60;;;;;;;7.34;100.00;100165.09;4960322;28;20174;-79
2022/01/03 02:16:11;;;;;;;16.48;7.75;;;;;;;7.42;100.00;100172.84;4974190;28;20643;-79
2022/01/03 02:18:43;;;;;;;15.65;7.63;;;;;;;7.38;100.00;100180.06;4952368;28;20750;-81
2022/01/03 02:21:11;;;;;;;14.95;6.82;;;;;;;7.28;100.00;100177.78;4972581;28;20212;-80
2022/01/03 02:23:38;;;;;;;16.20;4.65;;;;;;;7.29;100.00;100168.88;4982994;28;20177;-79
2022/01/03 02:26:03;;;;;;;11.35;4.18;;;;;;;7.24;100.00;100179.69;4989706;28;20181;-79
2022/01/03 02:28:29;;;;;;;13.15;3.85;;;;;;;7.19;100.00;100178.97;4990276;28;20182;-80
2022/01/03 02:30:56;;;;;;;10.60;2.75;;;;;;;7.13;100.00;100179.22;4990437;28;20639;-80
2022/01/03 02:33:22;;;;;;;11.02;2.90;;;;;;;7.21;100.00;100177.13;4992031;28;20174;-79
2022/01/03 02:35:48;;;;;;;6.20;1.88;;;;;;;7.12;100.00;100183.66;4975441;28;20281;-78
2022/01/03 02:38:15;;;;;;;7.15;1.65;;;;;;;7.12;100.00;100175.66;4956694;28;20194;-80
2022/01/03 02:40:41;;;;;;;6.20;1.63;;;;;;;7.03;100.00;100196.41;4969066;28;20184;-80
2022/01/03 02:43:07;;;;;;;10.50;1.90;;;;;;;6.93;100.00;100203.81;4957929;28;20217;-78
2022/01/03 02:45:34;;;;;;;7.25;1.20;;;;;;;6.95;100.00;100202.88;4973518;28;20178;-78
2022/01/03 02:48:07;;;;;;;9.93;1.38;;;;;;;6.90;100.00;100201.28;4974176;28;20178;-78
2022/01/03 02:50:35;;;;;;;8.82;1.30;;;;;;;7.00;100.00;100189.41;4972466;28;20677;-77
2022/01/03 02:53:02;;;;;;;6.93;1.63;;;;;;;6.98;100.00;100194.78;4972397;28;20265;-79
2022/01/03 02:55:28;;;;;;;7.20;1.40;;;;;;;6.97;100.00;100197.47;4974964;28;20648;-77
2022/01/03 02:57:59;;;;;;;12.68;1.92;;;;;;;6.96;100.00;100195.75;4974549;28;20623;-78
2022/01/03 03:00:30;;;;;;;6.88;1.63;;;;;;;6.94;100.00;100195.81;4961334;28;20277;-78
2022/01/03 03:02:56;;;;;;;12.82;2.10;;;;;;;6.95;100.00;100196.66;4974752;28;20205;-77
2022/01/03 03:05:23;;;;;;;10.57;1.95;;;;;;;6.97;100.00;100187.69;4979510;28;20166;-78
2022/01/03 03:07:53;;;;;;;9.75;1.77;;;;;;;6.98;100.00;100189.44;4979550;28;20178;-78
2022/01/03 03:10:21;;;;;;;9.80;1.77;;;;;;;6.93;100.00;100186.09;4962593;28;20180;-78
2022/01/03 03:12:48;;;;;;;10.88;1.90;;;;;;;6.93;100.00;100196.72;4973264;28;20625;-77
2022/01/03 03:15:15;;;;;;;13.20;1.67;;;;;;;6.99;100.00;100193.84;4954444;28;20185;-77
2022/01/03 03:17:41;;;;;;;6.38;1.67;;;;;;;6.95;100.00;100178.91;4969909;28;20666;-77
2022/01/03 03:20:10;;;;;;;9.13;1.70;;;;;;;6.93;100.00;100179.88;4970709;28;20174;-79
2022/01/03 03:22:37;;;;;;;10.05;2.13;;;;;;;6.88;100.00;100182.69;4970019;28;20220;-77
2022/01/03 03:25:06;;;;;;;8.88;1.58;;;;;;;6.87;100.00;100177.44;4969868;28;20174;-77
2022/01/03 03:27:34;;;;;;;6.57;1.20;;;;;;;6.83;100.00;100174.00;4955972;28;20224;-78
2022/01/03 03:30:00;;;;;;;8.13;1.55;;;;;;;6.87;100.00;100188.94;4971106;28;20856;-80
2022/01/03 03:32:27;;;;;;;8.65;1.48;;;;;;;6.84;100.00;100181.03;4953497;28;20273;-78
2022/01/03 03:34:53;;;;;;;5.50;1.10;;;;;;;6.90;100.00;100190.63;4970135;28;20178;-79
2022/01/03 03:37:19;;;;;;;7.30;1.38;;;;;;;6.85;100.00;100189.91;4970107;28;20215;-77
2022/01/03 03:39:47;;;;;;;9.07;1.30;;;;;;;6.88;100.00;100197.78;4987882;28;20212;-78
2022/01/03 03:42:15;;;;;;;6.85;1.40;;;;;;;6.85;100.00;100190.78;4987181;28;20235;-78
2022/01/03 03:44:41;;;;;;;6.65;1.73;;;;;;;6.87;100.00;100202.25;4987719;28;20232;-77
2022/01/03 03:47:08;;;;;;;8.50;1.30;;;;;;;6.81;100.00;100195.34;4970989;28;20176;-78
2022/01/03 03:49:35;;;;;;;7.88;1.60;;;;;;;6.87;100.00;100190.75;4954902;28;20182;-77
2022/01/03 03:52:02;;;;;;;12.50;1.92;;;;;;;6.83;100.00;100187.31;4970140;28;20181;-77
2022/01/03 03:54:30;;;;;;;11.90;1.80;;;;;;;6.82;100.00;100180.22;4969842;28;20213;-77
2022/01/03 03:56:57;;;;;;;10.57;1.80;;;;;;;6.87;100.00;100196.06;4986522;28;20554;-77
2022/01/03 03:59:24;;;;;;;10.93;2.10;;;;;;;6.77;100.00;100188.38;4969991;28;20265;-77
2022/01/03 04:01:50;;;;;;;14.05;2.35;;;;;;;6.82;100.00;100188.19;4971214;28;20206;-77
2022/01/03 04:04:17;;;;;;;11.90;2.10;;;;;;;6.79;100.00;100175.88;4969460;28;20182;-77
2022/01/03 04:06:43;;;;;;;13.70;2.17;;;;;;;6.81;100.00;100195.34;4985929;28;20193;-77
2022/01/03 04:09:08;;;;;;;19.50;3.25;;;;;;;6.82;100.00;100190.88;4970077;28;20180;-77
2022/01/03 04:11:34;;;;;;;13.35;2.33;;;;;;;6.87;100.00;100188.09;4985960;28;20228;-79
2022/01/03 04:14:02;;;;;;;18.80;3.55;;;;;;;6.86;100.00;100187.19;4969815;28;20185;-78
2022/01/03 04:16:27;;;;;;;17.05;2.75;;;;;;;6.84;100.00;100183.69;4985836;28;20174;-78
2022/01/03 04:18:53;;;;;;;22.17;2.95;;;;;;;6.83;100.00;100178.44;4966424;28;20771;-78
2022/01/03 04:21:19;;;;;;;22.85;3.25;;;;;;;6.85;100.00;100182.78;4983662;28;20200;-79
2022/01/03 04:23:44;;;;;;;12.32;2.35;;;;;;;6.90;100.00;100179.97;4982089;28;20186;-80
2022/01/03 04:26:11;;;;;;;17.98;3.05;;;;;;;6.85;100.00;100180.13;4972149;28;20228;-77
2022/01/03 04:28:38;;;;;;;25.92;3.05;;;;;;;6.93;100.00;100187.84;4989603;28;20236;-77
2022/01/03 04:31:03;;;;;;;25.40;3.58;;;;;;;6.96;100.00;100177.97;4989700;28;20280;-77
2022/01/03 04:33:31;;;;;;;23.83;3.72;;;;;;;6.93;100.00;100191.41;4989267;28;20177;-77
2022/01/03 04:35:57;;;;;;;21.70;3.30;;;;;;;6.91;100.00;100187.03;4962620;28;20209;-77
2022/01/03 04:38:22;;;;;;;25.58;3.95;;;;;;;6.98;100.00;100185.94;4977641;28;20591;-77
2022/01/03 04:40:48;;;;;;;17.95;3.25;;;;;;;6.95;100.00;100178.91;4966736;28;20181;-77
2022/01/03 04:43:13;;;;;;;23.63;3.28;;;;;;;7.00;100.00;100184.94;4990070;28;20216;-77
2022/01/03 04:45:38;;;;;;;22.55;3.30;;;;;;;7.04;100.00;100177.72;4992510;28;20308;-77
2022/01/03 04:48:04;;;;;;;21.90;3.00;;;;;;;6.98;100.00;100178.78;4992308;28;20173;-77
2022/01/03 04:50:30;;;;;;;29.02;3.30;;;;;;;7.05;100.00;100165.28;4993446;28;20181;-77
2022/01/03 04:52:55;;;;;;;16.88;3.13;;;;;;;7.02;100.00;100184.91;4993209;28;20595;-77
2022/01/03 04:55:21;;;;;;;20.38;3.30;;;;;;;6.97;100.00;100179.69;4976361;28;20187;-77
2022/01/03 04:57:47;;;;;;;18.73;2.88;;;;;;;7.01;100.00;100165.38;4992235;28;20169;-77
2022/01/03 05:00:15;;;;;;;22.92;3.65;;;;;;;7.05;100.00;100189.25;4992065;28;20201;-76
2022/01/03 05:02:40;;;;;;;24.23;4.10;;;;;;;7.00;100.00;100168.97;4992144;28;20223;-77
2022/01/03 05:05:06;;;;;;;24.02;3.83;;;;;;;7.03;100.00;100181.31;4994158;28;20165;-77
2022/01/03 05:07:32;;;;;;;21.15;3.30;;;;;;;7.09;100.00;100181.09;4991673;28;20260;-80
2022/01/03 05:09:58;;;;;;;28.38;3.63;;;;;;;7.06;100.00;100180.31;4976196;28;20208;-77
2022/01/03 05:12:23;;;;;;;23.55;3.65;;;;;;;7.05;100.00;100173.25;4993370;28;20244;-76
2022/01/03 05:14:49;;;;;;;23.30;3.63;;;;;;;7.09;100.00;100166.91;4992080;28;20169;-76
2022/01/03 05:17:15;;;;;;;27.25;4.72;;;;;;;7.09;100.00;100173.09;4991276;28;20174;-76
2022/01/03 05:19:40;;;;;;;22.10;3.67;;;;;;;7.10;100.00;100165.97;4993234;28;20323;-76
2022/01/03 05:22:06;;;;;;;23.77;4.10;;;;;;;7.06;100.00;100173.19;4991967;28;20202;-77
2022/01/03 05:24:34;;;;;;;26.98;4.13;;;;;;;7.09;100.00;100169.56;4993173;28;20162;-78
2022/01/03 05:27:01;;;;;;;22.15;3.72;;;;;;;7.16;100.00;100163.09;4991296;28;20177;-77
2022/01/03 05:29:28;;;;;;;24.02;4.47;;;;;;;7.14;100.00;100187.13;4975424;28;20180;-78
2022/01/03 05:31:54;;;;;;;25.08;4.63;;;;;;;7.13;100.00;100174.75;4991377;28;20662;-77
2022/01/03 05:34:20;;;;;;;27.42;4.78;;;;;;;7.13;100.00;100173.88;4991480;28;20165;-78
2022/01/03 05:36:45;;;;;;;34.38;5.43;;;;;;;7.19;100.00;100169.22;4990958;28;20169;-76
2022/01/03 05:39:12;;;;;;;28.13;4.72;;;;;;;7.13;100.00;100169.41;4991633;28;20196;-77
2022/01/03 05:41:38;;;;;;;30.85;4.50;;;;;;;7.15;100.00;100162.25;4991147;28;20219;-77
2022/01/03 05:44:04;;;;;;;39.63;5.43;;;;;;;7.15;100.00;100174.66;4991271;28;20724;-77
2022/01/03 05:46:30;;;;;;;30.27;5.20;;;;;;;7.15;100.00;100172.00;4991128;28;20182;-79
2022/01/03 05:48:55;;;;;;;31.67;5.28;;;;;;;7.15;100.00;100164.00;4990869;28;20661;-77
2022/01/03 05:51:21;;;;;;;40.53;5.22;;;;;;;7.25;100.00;100165.44;4991237;28;20232;-77
2022/01/03 05:53:47;;;;;;;32.13;4.97;;;;;;;7.20;100.00;100170.06;4991469;28;20206;-77
2022/01/03 05:56:12;;;;;;;31.05;4.72;;;;;;;7.25;100.00;100168.09;4992298;28;20456;-77
2022/01/03 05:58:38;;;;;;;32.33;5.05;;;;;;;7.31;100.00;100172.38;4991541;28;20185;-79
2022/01/03 06:01:03;;;;;;;39.30;6.35;;;;;;;7.27;100.00;100170.72;4990740;28;20201;-78
2022/01/03 06:03:34;;;;;;;31.25;5.57;;;;;;;7.28;100.00;100167.13;4991166;28;20225;-78
2022/01/03 06:08:26;;;;;;;33.50;4.80;;;;;;;7.29;100.00;100166.22;4991345;28;20169;-78
2022/01/03 06:10:52;;;;;;;31.85;5.85;;;;;;;7.29;100.00;100158.22;4992377;28;20200;-79
2022/01/03 06:13:28;;;;;;;32.60;5.07;;;;;;;7.36;100.00;100163.25;4991031;28;20692;-78
2022/01/03 06:15:55;;;;;;;34.15;5.40;;;;;;;7.34;100.00;100164.25;4974692;28;20231;-78
2022/01/03 06:18:22;;;;;;;36.78;5.40;;;;;;;7.35;100.00;100155.34;4990932;28;20342;-78
2022/01/03 06:20:51;;;;;;;29.00;5.40;;;;;;;7.29;100.00;100156.41;4975251;28;20173;-78
2022/01/03 06:23:20;;;;;;;38.05;5.90;;;;;;;7.38;100.00;100164.06;4990495;28;20201;-78
2022/01/03 06:25:46;;;;;;;39.15;6.35;;;;;;;7.34;100.00;100162.44;4990450;28;20541;-79
2022/01/03 06:28:15;;;;;;;37.78;5.97;;;;;;;7.31;100.00;100164.38;4990841;28;20215;-78
2022/01/03 06:30:43;;;;;;;32.35;5.40;;;;;;;7.28;100.00;100168.03;4990783;28;20185;-79
2022/01/03 06:33:10;;;;;;;37.50;6.00;;;;;;;7.35;100.00;100174.84;4990750;28;20166;-79
2022/01/03 06:35:37;;;;;;;33.88;6.00;;;;;;;7.35;100.00;100164.19;4960251;28;20185;-79
2022/01/03 06:38:04;;;;;;;44.53;6.07;;;;;;;7.35;100.00;100164.19;4955106;28;20190;-77
2022/01/03 06:40:30;;;;;;;34.42;5.38;;;;;;;7.35;100.00;100158.00;4970989;28;20259;-77
2022/01/03 06:42:55;;;;;;;36.15;5.85;;;;;;;7.35;100.00;100166.88;4971106;28;20679;-79
2022/01/03 06:45:22;;;;;;;40.22;5.90;;;;;;;7.42;100.00;100175.50;4971136;28;20229;-78
2022/01/03 06:47:50;;;;;;;35.95;5.47;;;;;;;7.41;100.00;100174.66;4954687;28;20185;-78
2022/01/03 06:50:17;;;;;;;32.55;5.15;;;;;;;7.35;100.00;100161.53;4970910;28;20639;-78
2022/01/03 06:52:43;;;;;;;38.65;5.70;;;;;;;7.36;100.00;100152.59;4970534;28;20190;-78
2022/01/03 06:55:08;;;;;;;41.17;5.38;;;;;;;7.42;100.00;100163.03;4954919;28;20185;-77
2022/01/03 06:57:35;;;;;;;30.45;5.85;;;;;;;7.42;100.00;100157.72;4970486;28;20196;-79
2022/01/03 07:00:01;;;;;;;38.47;5.88;;;;;;;7.40;100.00;100162.22;4974614;28;20658;-78
2022/01/03 07:02:28;;;;;;;36.88;5.95;;;;;;;7.40;100.00;100167.56;4971492;28;20206;-79
2022/01/03 07:04:55;;;;;;;32.55;5.90;;;;;;;7.47;100.00;100148.69;4971889;28;20233;-79
2022/01/03 07:07:21;;;;;;;43.58;6.65;;;;;;;7.55;100.00;100159.94;4954733;28;20205;-80
2022/01/03 07:09:46;;;;;;;28.15;5.82;;;;;;;7.49;100.00;100150.38;4970643;28;20190;-80
2022/01/03 07:12:11;;;;;;;35.10;5.40;;;;;;;7.52;100.00;100181.38;4972907;28;20194;-78
2022/01/03 07:19:59;;;;;;;39.22;5.70;;;;;;;7.45;100.00;100171.84;4977813;28;20166;-79
2022/01/03 07:22:26;;;;;;;44.40;6.78;;;;;;;7.43;100.00;100180.78;4956319;28;20224;-78
2022/01/03 07:24:52;;;;;;;35.15;5.68;;;;;;;7.46;100.00;100176.28;4973547;28;20861;-78
2022/01/03 07:27:18;;;;;;;37.20;5.95;;;;;;;7.42;100.00;100187.03;4972475;28;20178;-78
2022/01/03 07:29:44;;;;;;;39.95;6.88;;;;;;;7.47;100.00;100194.00;4974720;28;20192;-79
2022/01/03 07:32:10;;;;;;;36.90;6.53;;;;;;;7.45;100.00;100188.72;4972656;28;20739;-79
2022/01/03 07:34:36;;;;;;;40.55;6.45;;;;;;;7.47;100.00;100194.88;4971177;28;20182;-79
2022/01/03 07:37:02;;;;;;;30.48;5.57;;;;;;;7.49;100.00;100184.16;4970710;28;20162;-79
2022/01/03 07:39:31;;;;;;;38.40;5.80;;;;;;;7.47;100.00;100189.53;5097605;23;20716;-78
2022/01/03 07:41:59;;;;;;;41.47;6.30;;;;;;;7.45;100.00;100183.38;4963396;28;20261;-80
2022/01/03 07:44:26;;;;;;;38.75;6.20;;;;;;;7.49;100.00;100179.69;4968017;28;20268;-78
2022/01/03 07:46:51;;;;;;;31.95;6.05;;;;;;;7.47;100.00;100178.00;4969578;28;20260;-79
2022/01/03 07:49:17;;;;;;;34.45;6.50;;;;;;;7.50;100.00;100191.22;4970915;28;20178;-79
2022/01/03 07:51:42;;;;;;;39.42;6.45;;;;;;;7.46;100.00;100176.28;4970785;28;20620;-79
2022/01/03 07:54:07;;;;;;;37.72;6.25;;;;;;;7.46;100.00;100181.63;4969831;28;20267;-79
2022/01/03 07:56:33;;;;;;;37.08;6.78;;;;;;;7.52;100.00;100197.34;4970339;28;20205;-80
2022/01/03 07:59:00;;;;;;;29.70;5.35;;;;;;;7.48;100.00;100199.28;4971177;28;20233;-80
2022/01/03 08:01:25;;;;;;;36.67;6.10;;;;;;;7.46;100.00;100195.81;4970671;28;20280;-79
2022/01/03 08:03:50;;;;;;;34.53;6.05;;;;;;;7.42;100.00;100192.38;4970930;28;20272;-79
2022/01/03 08:06:16;;;;;;;33.67;5.82;;;;;;;7.54;100.00;100203.50;4969631;28;20170;-78
2022/01/03 08:08:41;;;;;;;34.88;6.53;;;;;;;7.45;100.00;100196.72;4970879;28;20257;-79
2022/01/03 08:11:07;;;;;;;42.63;6.97;;;;;;;7.43;100.00;100215.44;4971249;28;20700;-79
2022/01/03 08:13:33;;;;;;;31.50;6.00;;;;;;;7.43;100.00;100203.88;4972194;28;20229;-79
2022/01/03 08:15:58;;;;;;;27.65;6.07;;;;;;;7.43;100.00;100201.22;4969138;28;20186;-79
2022/01/03 08:18:24;;;;;;;39.15;6.75;;;;;;;7.42;100.00;100203.03;4970934;28;20285;-79
2022/01/03 08:20:51;;;;;;;35.92;6.70;;;;;;;7.41;100.00;100214.63;4965731;28;20186;-78
2022/01/03 08:23:17;;;;;;;44.33;6.63;;;;;;;7.42;100.00;100213.69;4954451;29;20202;-78
2022/01/03 08:25:42;;;;;;;43.90;6.85;;;;;;;7.42;100.00;100219.00;4956276;28;20644;-77
2022/01/03 08:28:09;;;;;;;33.25;6.10;;;;;;;7.46;100.00;100213.59;4985612;28;20177;-77
2022/01/03 08:30:36;;;;;;;32.97;6.65;;;;;;;7.46;100.00;100217.13;4973510;28;20619;-78
2022/01/03 08:33:03;;;;;;;27.27;4.93;;;;;;;7.46;100.00;100203.78;4954748;28;20210;-78
2022/01/03 08:35:29;;;;;;;40.03;7.60;;;;;;;7.47;100.00;100218.84;4954856;29;20514;-78
2022/01/03 08:37:59;;;;;;;34.30;6.45;;;;;;;7.50;100.00;100220.53;4953486;29;20226;-78
2022/01/03 08:40:25;;;;;;;33.00;5.80;;;;;;;7.52;100.00;100224.00;4961880;28;20170;-78
2022/01/03 08:42:51;;;;;;;32.78;6.43;;;;;;;7.49;100.00;100214.34;4975768;28;20276;-78
2022/01/03 08:45:18;;;;;;;37.10;5.43;;;;;;;7.51;100.00;100215.16;4973836;28;20174;-78
2022/01/03 08:47:44;;;;;;;40.05;5.18;;;;;;;7.45;100.00;100215.38;4973239;28;20180;-78
2022/01/03 08:50:10;;;;;;;25.70;4.75;;;;;;;7.56;100.00;100207.00;4974108;28;20200;-78
2022/01/03 08:52:36;;;;;;;31.02;4.88;;;;;;;7.46;100.00;100217.13;4977780;28;20213;-79
2022/01/03 08:55:03;;;;;;;27.60;5.35;;;;;;;7.48;100.00;100214.38;4977326;28;20604;-78
2022/01/03 08:57:28;;;;;;;37.85;6.15;;;;;;;7.55;100.00;100213.25;4976743;28;20166;-80
2022/01/03 08:59:54;;;;;;;30.88;5.22;;;;;;;7.53;100.00;100239.97;4975375;28;20213;-78
2022/01/03 09:02:19;;;;;;;33.58;5.95;;;;;;;7.56;100.00;100221.19;4974724;28;20210;-78
2022/01/03 09:04:45;;;;;;;34.63;5.95;;;;;;;7.55;100.00;100223.94;4974650;28;20177;-79
2022/01/03 09:07:13;;;;;;;33.92;6.10;;;;;;;7.52;100.00;100218.69;4974481;28;20506;-78
2022/01/03 09:09:39;;;;;;;31.10;5.63;;;;;;;7.57;100.00;100206.09;4975099;28;20272;-79
2022/01/03 09:12:07;;;;;;;40.00;6.45;;;;;;;7.55;100.00;100210.59;4978657;28;20280;-79
2022/01/03 09:14:36;;;;;;;38.42;6.50;;;;;;;7.59;100.00;100220.22;4978556;28;20201;-79
2022/01/03 09:17:03;;;;;;;29.77;4.95;;;;;;;7.62;100.00;100210.31;4976072;28;20185;-80
2022/01/03 09:19:29;;;;;;;28.25;5.30;;;;;;;7.61;100.00;100221.06;4977295;28;20641;-80
2022/01/03 09:22:05;;;;;;;30.23;5.53;;;;;;;7.67;100.00;100222.59;4976806;28;20687;-80
2022/01/03 09:24:43;;;;;;;27.35;5.45;;;;;;;7.68;100.00;100222.56;4958953;28;20182;-77
2022/01/03 09:29:57;;;;;;;28.17;5.78;;;;;;;7.66;100.00;100210.22;4953801;28;20666;-78
2022/01/03 09:32:22;;;;;;;38.38;5.82;;;;;;;7.71;100.00;100213.56;4961828;28;20191;-78
2022/01/03 09:34:47;;;;;;;26.77;5.43;;;;;;;7.74;100.00;100218.78;4959738;28;20233;-78
2022/01/03 09:37:17;;;;;;;26.25;5.05;;;;;;;7.76;99.64;100224.94;4953618;29;20297;-78
2022/01/03 09:39:42;;;;;;;35.78;5.78;;;;;;;7.78;99.28;100207.06;4955168;28;20190;-78
2022/01/03 09:42:11;;;;;;;31.27;5.45;;;;;;;7.77;99.46;100224.88;4955958;28;20569;-78
2022/01/03 09:44:36;;;;;;;29.50;5.78;;;;;;;7.75;99.22;100226.72;4955518;28;20171;-77
2022/01/03 09:47:06;;;;;;;38.15;6.88;;;;;;;7.78;99.47;100231.06;4953159;29;20654;-78
2022/01/03 09:49:36;;;;;;;34.17;5.78;;;;;;;7.74;99.71;100219.69;4954494;29;20221;-78
2022/01/03 09:52:04;;;;;;;28.77;6.00;;;;;;;7.79;99.75;100222.19;4962708;28;20289;-78
2022/01/03 09:54:30;;;;;;;29.70;5.35;;;;;;;7.83;99.53;100221.13;4984225;28;20177;-78
2022/01/03 09:57:00;;;;;;;31.58;5.72;;;;;;;7.83;99.11;100206.00;4979690;28;20539;-80
2022/01/03 09:59:26;;;;;;;29.33;5.93;;;;;;;7.84;99.30;100221.06;4973840;28;20816;-80
2022/01/03 10:01:53;;;;;;;40.78;5.70;;;;;;;7.92;99.13;100206.59;4975985;28;20212;-79
2022/01/03 10:04:19;;;;;;;28.80;5.95;;;;;;;7.89;99.13;100225.34;4976505;28;20166;-79
2022/01/03 10:06:46;;;;;;;43.00;6.50;;;;;;;7.90;99.18;100213.78;4958793;28;20177;-79
2022/01/03 10:09:13;;;;;;;31.02;5.70;;;;;;;7.90;98.99;100227.97;4979261;28;20257;-79
2022/01/03 10:11:38;;;;;;;34.60;5.78;;;;;;;8.06;98.24;100206.94;4976740;28;20221;-78
2022/01/03 10:14:04;;;;;;;30.27;5.60;;;;;;;8.10;98.17;100205.03;4974799;28;20182;-80
2022/01/03 10:16:29;;;;;;;30.33;5.72;;;;;;;8.16;97.55;100203.00;4973553;28;20162;-80
2022/01/03 10:18:55;;;;;;;29.17;5.43;;;;;;;8.16;97.02;100204.78;4958272;28;20597;-80
2022/01/03 10:21:35;;;;;;;33.78;6.07;;;;;;;8.20;96.97;100195.75;4975323;28;20612;-80
2022/01/03 10:24:02;;;;;;;31.67;5.82;;;;;;;8.16;96.63;100196.78;4974763;28;20205;-80
2022/01/03 10:26:28;;;;;;;33.53;5.63;;;;;;;8.14;96.57;100206.66;4958170;28;20193;-81
2022/01/03 10:29:23;;;;;;;33.45;5.90;;;;;;;8.15;96.62;100203.03;4974888;28;20170;-79
2022/01/03 10:31:54;;;;;;;33.78;6.30;;;;;;;8.18;96.28;100192.28;4976307;28;20206;-79
2022/01/03 10:34:23;;;;;;;38.03;5.65;;;;;;;8.13;96.19;100194.22;4973137;28;20186;-79
2022/01/03 10:36:50;;;;;;;34.13;6.63;;;;;;;8.08;96.53;100181.06;4971845;28;20224;-79
2022/01/03 10:39:23;;;;;;;32.97;5.97;;;;;;;8.17;95.98;100182.50;4972306;28;20258;-80
2022/01/03 10:41:50;;;;;;;36.80;7.00;;;;;;;8.04;95.70;100185.63;4971259;28;20198;-79
2022/01/03 10:44:33;;;;;;;27.80;5.25;;;;;;;8.01;96.04;100179.56;4972965;28;20178;-79
2022/01/03 10:46:59;;;;;;;35.85;5.97;;;;;;;7.99;95.99;100182.28;4969562;28;20849;-78
2022/01/03 10:49:26;;;;;;;27.25;5.70;;;;;;;8.08;95.56;100178.38;4953267;28;20266;-78
2022/01/03 10:51:52;;;;;;;40.10;7.22;;;;;;;8.15;95.49;100179.03;4935449;29;20226;-78
2022/01/03 10:54:19;;;;;;;30.58;5.25;;;;;;;8.16;95.71;100183.44;4952849;29;20274;-78
2022/01/03 10:56:50;;;;;;;29.02;5.60;;;;;;;8.02;95.69;100170.63;4946006;28;20215;-78
2022/01/03 10:59:15;;;;;;;27.90;5.75;;;;;;;8.07;95.66;100174.00;4951776;28;20191;-77
2022/01/03 11:01:49;;;;;;;27.88;5.15;;;;;;;7.98;95.86;100172.56;4935381;29;20391;-79
2022/01/03 11:04:50;;;;;;;28.65;5.70;;;;;;;7.99;95.68;100171.59;4951021;29;20254;-78
2022/01/03 11:13:13;;;;;;;34.13;6.10;;;;;;;8.09;95.21;100152.56;4938007;29;20203;-79
2022/01/03 11:15:48;;;;;;;33.78;5.00;;;;;;;8.04;94.98;100158.09;4935918;29;20167;-80
2022/01/03 11:18:24;;;;;;;40.33;6.28;;;;;;;7.99;94.94;100166.28;4935830;29;20203;-80
2022/01/03 11:21:04;;;;;;;27.23;4.78;;;;;;;8.08;94.90;100151.72;4936761;29;20175;-80
2022/01/03 11:23:30;;;;;;;37.75;6.18;;;;;;;8.03;95.07;100140.38;4918456;29;20215;-78
2022/01/03 11:25:55;;;;;;;32.50;5.50;;;;;;;8.10;95.22;100135.66;4932786;29;20696;-80
2022/01/03 11:28:27;;;;;;;32.50;5.55;;;;;;;8.19;96.29;100148.63;4935141;29;20199;-78
2022/01/03 11:30:53;;;;;;;35.42;6.38;;;;;;;8.23;96.04;100134.25;4940041;28;20230;-78
2022/01/03 11:33:19;;;;;;;30.70;5.13;;;;;;;8.21;95.71;100144.97;4953363;29;20598;-78
2022/01/03 11:35:50;;;;;;;27.60;5.35;;;;;;;8.16;95.82;100140.75;4953721;29;20198;-78
2022/01/03 11:38:21;;;;;;;28.90;5.18;;;;;;;8.13;96.23;100135.53;4954842;28;20187;-79
2022/01/03 11:40:47;;;;;;;29.15;5.10;;;;;;;8.18;96.11;100134.41;4954239;28;20523;-78
2022/01/03 11:43:13;;;;;;;40.42;6.88;;;;;;;8.11;96.05;100138.28;4953584;29;20199;-79